Time;durP1;ratioP1;P1;durP2;ratioP2;P2;SDS_P1;SDS_P2;PMS_P1;PMS_P2;Temp;Humidity;BMP_temperature;BMP_pressure;BME280_temperature;BME280_humidity;BME280_pressure;Samples;Min_cycle;Max_cycle;Signal;HPM_P1;HPM_P2
2022/05/05 00:01:23;;;;;;;9.88;8.65;;;;;;;12.39;72.36;96844.88;6185326;23;20021;-76
2022/05/05 00:03:51;;;;;;;8.35;7.38;;;;;;;12.42;73.64;96848.91;6185767;23;20335;-78
2022/05/05 00:06:18;;;;;;;8.90;7.45;;;;;;;12.45;72.43;96848.56;6183703;23;20488;-78
2022/05/05 00:08:46;;;;;;;9.20;8.13;;;;;;;12.42;72.27;96838.44;6184735;23;20028;-78
2022/05/05 00:16:45;;;;;;;8.80;7.70;;;;;;;12.27;72.54;96831.50;6184335;23;20017;-78
2022/05/05 00:19:13;;;;;;;8.27;7.47;;;;;;;12.25;72.57;96836.09;6184952;23;20021;-78
2022/05/05 00:21:40;;;;;;;14.38;8.10;;;;;;;12.21;72.68;96837.47;6185173;23;20020;-78
2022/05/05 00:24:09;;;;;;;7.65;6.63;;;;;;;12.21;73.00;96847.13;6184677;23;20021;-78
2022/05/05 00:26:36;;;;;;;8.35;6.65;;;;;;;12.20;72.94;96838.47;6184011;23;20362;-78
2022/05/05 00:29:05;;;;;;;6.82;6.10;;;;;;;12.19;72.51;96839.44;6184555;23;20470;-78
2022/05/05 00:31:33;;;;;;;6.95;6.32;;;;;;;12.12;72.40;96838.59;6184933;23;20028;-76
2022/05/05 00:34:01;;;;;;;7.32;6.55;;;;;;;12.05;72.69;96835.91;6184919;23;20080;-76
2022/05/05 00:36:28;;;;;;;8.13;6.82;;;;;;;12.02;72.63;96833.63;6184015;23;20332;-76
2022/05/05 00:38:56;;;;;;;7.50;6.75;;;;;;;11.98;72.77;96839.41;6195198;23;20021;-77
2022/05/05 00:41:24;;;;;;;7.70;6.78;;;;;;;11.93;72.72;96838.16;6204891;23;20025;-76
2022/05/05 00:43:52;;;;;;;7.82;7.03;;;;;;;11.86;72.82;96834.63;6204807;23;20028;-77
2022/05/05 00:46:21;;;;;;;7.65;6.85;;;;;;;11.82;72.95;96838.63;6203283;23;20055;-77
2022/05/05 00:48:50;;;;;;;9.82;8.63;;;;;;;11.79;72.91;96833.75;6190868;23;20023;-77
2022/05/05 00:51:18;;;;;;;8.75;7.82;;;;;;;11.73;73.02;96824.03;6186595;23;20032;-76
2022/05/05 00:53:45;;;;;;;9.43;7.82;;;;;;;11.66;72.96;96828.38;6185090;23;20021;-76
2022/05/05 00:56:15;;;;;;;9.90;8.35;;;;;;;11.60;73.16;96826.50;6183997;23;20060;-76
2022/05/05 00:58:47;;;;;;;8.98;8.18;;;;;;;11.53;73.20;96824.59;6189561;23;20005;-79
2022/05/05 01:01:18;;;;;;;9.82;8.13;;;;;;;11.48;73.23;96819.13;6212753;23;20012;-80
2022/05/05 01:03:49;;;;;;;9.30;8.30;;;;;;;11.42;73.42;96816.44;6212821;23;20013;-79
2022/05/05 01:06:19;;;;;;;9.57;7.45;;;;;;;11.38;73.23;96812.56;6212272;23;20024;-80
2022/05/05 01:08:48;;;;;;;8.80;7.55;;;;;;;11.33;73.20;96815.72;6212441;23;20060;-79
2022/05/05 01:11:22;;;;;;;7.60;6.90;;;;;;;11.31;73.36;96812.47;6214057;23;20021;-80
2022/05/05 01:13:51;;;;;;;9.50;8.57;;;;;;;11.33;74.59;96810.50;6214740;23;20008;-80
2022/05/05 01:16:21;;;;;;;9.98;8.45;;;;;;;11.37;73.63;96816.16;6214364;23;20005;-80
2022/05/05 01:18:56;;;;;;;8.18;7.30;;;;;;;11.33;73.96;96820.94;6214749;23;20009;-80
2022/05/05 01:21:28;;;;;;;9.38;7.43;;;;;;;11.33;73.48;96820.94;6214686;23;20052;-80
2022/05/05 01:23:56;;;;;;;8.48;7.25;;;;;;;11.31;73.45;96812.47;6214964;23;20028;-79
2022/05/05 01:29:11;;;;;;;7.82;7.10;;;;;;;11.36;73.32;96823.19;6214458;23;20013;-80
2022/05/05 01:31:43;;;;;;;9.13;8.23;;;;;;;11.37;73.08;96823.97;6214228;23;20021;-79
2022/05/05 01:34:11;;;;;;;10.20;9.20;;;;;;;11.31;72.81;96815.88;6214479;23;20040;-80
2022/05/05 01:36:40;;;;;;;10.90;9.48;;;;;;;11.25;73.26;96821.03;6213746;23;20012;-80
2022/05/05 01:39:08;;;;;;;11.82;10.63;;;;;;;11.18;73.18;96822.75;6214542;23;20011;-80
2022/05/05 01:41:36;;;;;;;12.05;9.23;;;;;;;11.12;73.38;96817.22;6214246;23;20049;-80
2022/05/05 01:44:04;;;;;;;8.77;7.88;;;;;;;11.05;73.32;96824.16;6214356;23;20009;-80
2022/05/05 01:46:32;;;;;;;9.55;7.20;;;;;;;11.02;73.82;96828.91;6213974;23;20012;-80
2022/05/05 01:49:05;;;;;;;8.25;7.45;;;;;;;11.02;73.57;96842.81;6214341;23;20032;-80
2022/05/05 01:51:33;;;;;;;8.05;7.00;;;;;;;11.07;74.06;96834.44;6214315;23;20025;-80
2022/05/05 01:54:03;;;;;;;8.70;7.70;;;;;;;11.09;73.68;96840.28;6214234;23;20027;-80
2022/05/05 01:56:35;;;;;;;8.23;6.97;;;;;;;11.11;73.31;96841.72;6213485;23;20052;-79
2022/05/05 01:59:03;;;;;;;9.02;8.15;;;;;;;11.12;73.14;96847.75;6213640;23;20029;-81
2022/05/05 02:01:31;;;;;;;9.15;8.07;;;;;;;11.11;72.88;96841.72;6213848;23;20001;-82
2022/05/05 02:04:01;;;;;;;10.00;8.65;;;;;;;11.09;72.90;96843.72;6214113;23;20091;-80
2022/05/05 02:06:31;;;;;;;8.48;7.68;;;;;;;11.11;72.95;96851.38;6213805;23;20011;-80
2022/05/05 02:09:02;;;;;;;9.77;8.18;;;;;;;11.07;72.46;96853.50;6213998;23;20017;-79
2022/05/05 02:11:32;;;;;;;10.35;8.18;;;;;;;11.01;72.54;96849.00;6214424;23;20005;-80
2022/05/05 02:14:00;;;;;;;8.80;7.90;;;;;;;10.96;73.02;96853.94;6214089;23;20013;-80
2022/05/05 02:16:31;;;;;;;11.32;9.05;;;;;;;10.93;72.97;96849.91;6213297;23;20012;-81
2022/05/05 02:19:02;;;;;;;10.38;8.10;;;;;;;10.93;73.21;96851.69;6213753;23;20064;-79
2022/05/05 02:21:33;;;;;;;9.75;8.48;;;;;;;10.92;72.77;96847.47;6213218;23;20005;-80
2022/05/05 02:24:01;;;;;;;9.90;8.68;;;;;;;10.86;72.94;96853.38;6214189;23;20049;-80
2022/05/05 02:26:29;;;;;;;10.70;8.38;;;;;;;10.76;72.87;96848.44;6213311;23;20012;-80
2022/05/05 02:28:58;;;;;;;10.35;8.15;;;;;;;10.68;73.12;96851.91;6213556;23;20012;-80
2022/05/05 02:31:26;;;;;;;11.43;8.75;;;;;;;10.61;73.28;96843.16;6214141;23;20016;-80
2022/05/05 02:33:54;;;;;;;10.80;9.02;;;;;;;10.55;73.58;96846.47;6214075;23;20020;-80
2022/05/05 02:39:07;;;;;;;9.25;8.27;;;;;;;10.53;73.98;96848.44;6213576;23;20032;-80
2022/05/05 02:41:37;;;;;;;9.13;7.82;;;;;;;10.55;74.09;96846.47;6213701;23;20025;-79
2022/05/05 02:44:06;;;;;;;11.15;9.50;;;;;;;10.60;73.91;96841.53;6213797;23;20028;-80
2022/05/05 02:46:34;;;;;;;9.93;8.60;;;;;;;10.62;73.63;96842.16;6213129;23;20037;-80
2022/05/05 02:49:02;;;;;;;10.93;9.48;;;;;;;10.57;73.18;96839.28;6213528;23;20020;-80
2022/05/05 02:51:30;;;;;;;14.15;10.73;;;;;;;10.50;73.37;96843.59;6213127;23;20021;-80
2022/05/05 02:56:43;;;;;;;10.55;9.18;;;;;;;10.35;73.91;96842.72;6213115;23;20045;-80
2022/05/05 02:59:12;;;;;;;10.77;9.35;;;;;;;10.36;74.08;96842.53;6213096;23;20012;-80
2022/05/05 03:01:40;;;;;;;11.30;9.88;;;;;;;10.39;74.02;96842.19;6212823;23;20005;-80
2022/05/05 03:04:08;;;;;;;10.43;9.27;;;;;;;10.40;73.84;96845.63;6213231;23;20044;-80
2022/05/05 03:06:37;;;;;;;12.98;9.65;;;;;;;10.39;73.81;96841.41;6212587;23;20055;-80
2022/05/05 03:09:05;;;;;;;13.05;10.35;;;;;;;10.36;73.64;96841.72;6212876;23;20027;-80
2022/05/05 03:11:35;;;;;;;11.32;10.13;;;;;;;10.29;73.79;96831.19;6212946;23;20029;-79
2022/05/05 03:14:03;;;;;;;13.30;10.18;;;;;;;10.23;73.88;96831.84;6213372;23;20222;-80
2022/05/05 03:16:33;;;;;;;13.98;10.52;;;;;;;10.19;74.20;96847.03;6212271;23;20009;-79
2022/05/05 03:19:01;;;;;;;10.90;8.98;;;;;;;10.22;74.81;96854.50;6212913;23;20061;-80
2022/05/05 03:21:29;;;;;;;13.60;9.80;;;;;;;10.21;74.34;96847.69;6213496;23;20008;-80
2022/05/05 03:23:57;;;;;;;12.55;10.15;;;;;;;10.18;74.44;96845.41;6212847;23;20021;-80
2022/05/05 03:26:25;;;;;;;13.80;9.93;;;;;;;10.12;74.08;96840.88;6211906;23;20001;-80
2022/05/05 03:28:53;;;;;;;12.70;10.30;;;;;;;10.07;74.37;96848.41;6213001;23;20016;-79
2022/05/05 03:31:21;;;;;;;11.02;9.93;;;;;;;10.03;74.21;96849.72;6212979;23;20021;-80
2022/05/05 03:33:54;;;;;;;11.48;10.23;;;;;;;9.99;74.63;96851.06;6212591;23;20012;-81
2022/05/05 03:36:23;;;;;;;11.52;9.68;;;;;;;9.94;74.71;96854.19;6212658;23;20005;-80
2022/05/05 03:38:51;;;;;;;11.38;9.85;;;;;;;9.90;74.51;96853.72;6212534;23;20005;-79
2022/05/05 03:41:19;;;;;;;14.65;10.25;;;;;;;9.85;74.68;96853.41;6213022;23;20028;-79
2022/05/05 03:43:47;;;;;;;12.75;9.07;;;;;;;9.81;74.90;96857.31;6213130;23;20021;-80
2022/05/05 03:46:15;;;;;;;11.82;9.57;;;;;;;9.78;75.01;96855.06;6212668;23;20016;-79
2022/05/05 03:48:42;;;;;;;10.80;9.73;;;;;;;9.76;74.79;96857.03;6213197;23;20017;-80
2022/05/05 03:51:12;;;;;;;11.57;9.75;;;;;;;9.73;75.03;96856.56;6212828;23;20077;-79
2022/05/05 03:53:40;;;;;;;12.95;8.90;;;;;;;9.73;75.19;96859.16;6212365;23;20028;-80
2022/05/05 03:56:09;;;;;;;10.63;9.13;;;;;;;9.75;75.21;96860.63;6212193;23;20026;-80
2022/05/05 03:58:37;;;;;;;12.18;10.30;;;;;;;9.79;75.31;96871.50;6212311;23;20013;-79
2022/05/05 04:01:05;;;;;;;12.13;9.18;;;;;;;9.83;75.44;96867.59;6212402;23;20028;-79
2022/05/05 04:03:34;;;;;;;11.35;9.43;;;;;;;9.85;75.14;96869.03;6212838;23;20009;-80
2022/05/05 04:06:03;;;;;;;12.88;10.32;;;;;;;9.85;74.90;96871.66;6212162;23;20029;-80
2022/05/05 04:08:33;;;;;;;12.60;10.63;;;;;;;9.85;74.83;96869.03;6212738;23;20047;-80
2022/05/05 04:11:01;;;;;;;11.25;10.05;;;;;;;9.83;74.71;96873.59;6212528;23;20040;-80
2022/05/05 04:13:29;;;;;;;11.27;10.13;;;;;;;9.82;74.92;96873.78;6212723;23;20016;-80
2022/05/05 04:15:57;;;;;;;12.85;9.63;;;;;;;9.83;74.94;96880.63;6211778;23;20053;-80
2022/05/05 04:18:25;;;;;;;10.63;9.20;;;;;;;9.88;75.88;96879.13;6212823;23;20009;-80
2022/05/05 04:20:53;;;;;;;13.25;9.43;;;;;;;9.95;75.69;96886.25;6212636;23;20005;-79
2022/05/05 05:11:29;;;;;;;13.05;10.82;;;;;;;10.33;74.03;96904.66;6149017;23;20017;-80
2022/05/05 05:14:02;;;;;;;13.85;11.27;;;;;;;10.41;73.36;96897.59;6139119;23;20005;-80
2022/05/05 05:16:29;;;;;;;16.63;10.85;;;;;;;10.45;73.36;96909.31;6134300;23;20028;-80
2022/05/05 05:19:12;;;;;;;;;;;;;;;10.56;74.97;96910.72;6146489;23;20034;-80
2022/05/05 05:21:49;;;;;;;14.85;10.88;;;;;;;10.67;73.94;96907.69;6150515;23;19916;-79
2022/05/05 05:24:18;;;;;;;17.40;11.63;;;;;;;10.75;73.62;96906.00;6150493;23;20022;-80
2022/05/05 05:29:48;;;;;;;13.90;10.75;;;;;;;10.86;73.30;96913.41;6153420;23;20022;-80
2022/05/05 05:32:23;;;;;;;13.00;10.43;;;;;;;10.95;73.08;96922.78;6155558;23;20013;-79
2022/05/05 05:34:55;;;;;;;11.18;9.73;;;;;;;11.05;74.48;96915.53;6154821;23;20029;-80
2022/05/05 05:37:38;;;;;;;12.35;10.73;;;;;;;11.20;76.76;96917.38;6130013;23;20057;-78
2022/05/05 05:40:15;;;;;;;13.05;9.95;;;;;;;11.35;76.58;96928.66;6155289;23;20006;-79
2022/05/05 05:42:55;;;;;;;13.88;11.40;;;;;;;11.41;73.75;96921.88;6155376;23;20058;-80
2022/05/05 05:45:34;;;;;;;15.75;11.73;;;;;;;11.47;73.46;96921.97;6155407;23;20052;-79
2022/05/05 05:48:09;;;;;;;15.80;11.13;;;;;;;11.53;72.67;96918.66;6219467;22;20088;-80
2022/05/05 05:50:39;;;;;;;15.90;10.77;;;;;;;11.60;72.57;96915.34;6244889;22;20035;-79
2022/05/05 05:53:12;;;;;;;13.70;10.48;;;;;;;11.67;72.49;96918.84;6244871;22;20047;-80
2022/05/05 05:55:47;;;;;;;14.07;11.40;;;;;;;11.72;72.39;96919.94;6244129;22;20016;-79
2022/05/05 05:58:24;;;;;;;12.35;10.68;;;;;;;11.80;72.27;96921.63;6244967;22;20043;-78
2022/05/05 06:01:09;;;;;;;14.63;10.65;;;;;;;11.85;72.22;96919.28;6244829;22;20020;-79
2022/05/05 06:03:54;;;;;;;14.07;10.52;;;;;;;11.90;72.27;96914.34;6244889;22;20033;-79
2022/05/05 06:09:01;;;;;;;17.95;11.65;;;;;;;11.97;72.43;96921.47;6209186;23;19997;-79
2022/05/05 06:11:37;;;;;;;14.95;10.32;;;;;;;12.02;72.55;96922.53;6214282;23;20036;-78
2022/05/05 06:14:30;;;;;;;16.65;10.35;;;;;;;12.14;74.78;96928.13;6214359;23;20017;-79
2022/05/05 06:17:02;;;;;;;12.82;9.50;;;;;;;12.25;74.73;96932.06;6214241;23;20036;-79
2022/05/05 06:19:36;;;;;;;16.52;10.27;;;;;;;12.35;75.48;96932.56;6214333;23;20015;-82
2022/05/05 06:22:10;;;;;;;14.80;10.93;;;;;;;12.44;75.61;96930.66;6214552;23;20008;-80
2022/05/05 06:24:40;;;;;;;11.20;9.93;;;;;;;12.52;76.11;96933.16;6214797;23;20021;-80
2022/05/05 06:27:10;;;;;;;14.35;11.23;;;;;;;12.56;73.34;96931.78;6214872;23;20017;-81
2022/05/05 06:29:42;;;;;;;12.35;10.90;;;;;;;12.57;72.10;96936.84;6214237;23;20237;-81
2022/05/05 06:32:28;;;;;;;13.95;12.10;;;;;;;12.62;71.68;96946.75;6210118;23;20005;-81
2022/05/05 06:34:58;;;;;;;13.68;11.45;;;;;;;12.66;71.49;96947.19;6214556;23;20028;-79
2022/05/05 06:37:30;;;;;;;18.13;11.80;;;;;;;12.73;72.16;96948.06;6188955;23;20001;-79
2022/05/05 06:40:05;;;;;;;13.38;9.93;;;;;;;12.82;73.70;96948.75;6214123;23;20061;-79
2022/05/05 06:42:35;;;;;;;12.70;10.13;;;;;;;12.89;73.60;96939.94;6213850;23;20005;-79
2022/05/05 06:45:10;;;;;;;12.80;11.27;;;;;;;12.93;71.63;96945.63;6188647;23;20036;-79
2022/05/05 06:47:40;;;;;;;14.55;11.85;;;;;;;12.97;71.28;96941.66;6214420;23;20004;-81
2022/05/05 06:50:12;;;;;;;19.25;12.75;;;;;;;13.05;72.60;96953.78;6213734;23;20024;-79
2022/05/05 06:52:59;;;;;;;14.95;12.63;;;;;;;13.14;74.06;96955.25;6213522;23;20076;-80
2022/05/05 06:58:15;;;;;;;13.13;10.48;;;;;;;13.29;71.47;96960.47;6197026;23;20035;-83
2022/05/05 07:05:23;;;;;;;13.38;11.80;;;;;;;13.42;71.47;96965.00;6184902;23;20025;-78
2022/05/05 07:06:39;;;;;;;12.93;11.45;;;;;;;13.47;71.17;96960.81;6183996;23;20036;-77
2022/05/05 07:11:51;;;;;;;15.55;12.57;;;;;;;13.56;70.79;96971.97;6184713;23;20017;-78
2022/05/05 07:14:18;;;;;;;13.30;11.90;;;;;;;13.61;72.08;96980.06;6185220;23;20035;-78
2022/05/05 07:16:47;;;;;;;13.15;11.52;;;;;;;13.65;71.36;96983.91;6184365;23;20027;-80
2022/05/05 07:19:15;;;;;;;13.32;12.00;;;;;;;13.69;72.40;96984.34;6184940;23;20032;-80
2022/05/05 07:21:43;;;;;;;13.75;12.23;;;;;;;13.74;71.10;96979.34;6184914;23;20017;-80
2022/05/05 07:24:10;;;;;;;15.52;12.65;;;;;;;13.78;72.08;96978.75;6185602;23;20048;-78
2022/05/05 07:26:38;;;;;;;15.02;13.07;;;;;;;13.83;71.94;96993.91;6183866;23;20040;-78
2022/05/05 07:29:05;;;;;;;14.90;13.27;;;;;;;13.88;72.24;96995.94;6185000;23;20036;-78
2022/05/05 07:31:33;;;;;;;22.65;17.85;;;;;;;13.92;72.04;96990.13;6185043;23;20350;-80
2022/05/05 07:34:02;;;;;;;43.03;29.50;;;;;;;13.98;71.76;96999.03;6185424;23;20024;-78
2022/05/05 07:36:29;;;;;;;47.08;35.08;;;;;;;14.04;72.10;96992.19;6183735;23;20025;-78
2022/05/05 07:38:57;;;;;;;17.55;15.23;;;;;;;14.09;71.40;96992.44;6184651;23;20023;-78
2022/05/05 07:41:25;;;;;;;15.68;13.98;;;;;;;14.14;71.43;97003.16;6185030;23;20017;-78
2022/05/05 07:43:52;;;;;;;17.20;15.32;;;;;;;14.18;71.27;96997.31;6184994;23;20105;-78
2022/05/05 07:46:20;;;;;;;18.52;15.00;;;;;;;14.26;71.30;96998.19;6183631;23;20369;-78
2022/05/05 07:48:47;;;;;;;19.25;16.27;;;;;;;14.30;69.89;96994.97;6184580;23;20025;-78
2022/05/05 07:51:16;;;;;;;23.52;19.08;;;;;;;14.34;69.64;97004.06;6184652;23;20021;-78
2022/05/05 07:54:34;;;;;;;44.72;32.92;;;;;;;14.42;70.88;97003.88;6184800;23;20021;-78
2022/05/05 07:56:32;;;;;;;31.38;24.58;;;;;;;14.53;70.81;97009.59;6183551;23;20021;-77
2022/05/05 07:58:59;;;;;;;18.20;15.85;;;;;;;14.61;69.71;97004.19;6184006;23;20043;-78
2022/05/05 08:01:28;;;;;;;17.30;15.48;;;;;;;14.67;68.55;97003.41;6184661;23;20040;-78
2022/05/05 08:03:56;;;;;;;17.08;14.77;;;;;;;14.74;68.42;96998.97;6184697;23;20025;-78
2022/05/05 08:06:26;;;;;;;17.08;15.27;;;;;;;14.83;69.31;97002.25;6183867;23;20025;-78
2022/05/05 08:08:53;;;;;;;18.70;16.23;;;;;;;14.90;68.85;97002.25;6184612;23;20031;-78
2022/05/05 08:11:21;;;;;;;17.40;15.15;;;;;;;14.94;69.18;97000.84;6184557;23;20017;-78
2022/05/05 08:13:49;;;;;;;20.50;17.48;;;;;;;14.95;68.32;97002.44;6184491;23;20025;-78
2022/05/05 08:16:17;;;;;;;16.30;14.68;;;;;;;14.98;69.10;97002.88;6183577;23;20025;-77
2022/05/05 08:18:45;;;;;;;20.52;17.30;;;;;;;15.03;67.77;97005.69;6183929;23;20024;-78
2022/05/05 08:21:12;;;;;;;23.65;18.75;;;;;;;15.14;67.02;97006.94;6185378;23;20017;-78
2022/05/05 08:23:41;;;;;;;20.17;18.02;;;;;;;15.31;68.25;97007.34;6185436;23;20036;-78
2022/05/05 08:28:54;;;;;;;17.92;14.80;;;;;;;15.66;66.28;97005.31;6184123;23;20476;-78
2022/05/05 08:31:21;;;;;;;20.63;17.95;;;;;;;15.83;66.29;97005.75;6184543;23;20028;-78
2022/05/05 08:33:49;;;;;;;23.30;18.48;;;;;;;16.00;65.04;97000.03;6184588;23;20021;-78
2022/05/05 08:36:17;;;;;;;22.80;19.70;;;;;;;16.14;63.96;97003.47;6183658;23;20021;-78
2022/05/05 08:38:46;;;;;;;22.40;19.20;;;;;;;16.27;65.06;97011.31;6184027;23;20040;-78
2022/05/05 08:41:14;;;;;;;21.00;18.55;;;;;;;16.38;65.01;97012.50;6184613;23;20025;-78
2022/05/05 08:43:42;;;;;;;19.30;16.58;;;;;;;16.51;64.56;97017.69;6184420;23;20025;-78
2022/05/05 08:46:29;;;;;;;18.27;16.38;;;;;;;16.63;63.33;97026.53;6196182;23;20025;-79
2022/05/05 08:49:02;;;;;;;20.45;17.48;;;;;;;16.75;62.47;97021.44;6195434;23;20021;-78
2022/05/05 08:51:39;;;;;;;21.88;16.17;;;;;;;16.89;61.81;97024.84;6185711;23;20032;-78
2022/05/05 08:54:11;;;;;;;19.90;16.33;;;;;;;17.02;60.54;97024.75;6184480;23;20021;-78
2022/05/05 08:56:39;;;;;;;17.10;15.32;;;;;;;17.16;59.95;97017.56;6183863;23;20103;-78
2022/05/05 08:59:08;;;;;;;16.58;14.32;;;;;;;17.32;60.36;97018.06;6183440;23;20021;-78
2022/05/05 09:01:38;;;;;;;16.17;14.18;;;;;;;17.46;59.51;97025.66;6184418;23;20021;-78
2022/05/05 09:04:06;;;;;;;17.90;15.95;;;;;;;17.64;59.90;97022.28;6184803;23;20059;-78
2022/05/05 09:06:46;;;;;;;18.13;14.95;;;;;;;17.82;59.88;97023.38;6183542;23;20021;-78
2022/05/05 09:09:36;;;;;;;18.27;15.20;;;;;;;18.01;58.32;97029.50;6183893;23;20017;-78
2022/05/05 09:12:12;;;;;;;14.55;13.05;;;;;;;18.18;60.29;97035.00;6173677;23;20017;-78
2022/05/05 09:14:43;;;;;;;15.55;12.73;;;;;;;18.32;59.93;97031.19;6184486;23;20024;-78
2022/05/05 09:17:14;;;;;;;15.07;13.57;;;;;;;18.44;57.67;97032.06;6183002;23;20031;-78
2022/05/05 09:19:43;;;;;;;14.60;11.98;;;;;;;18.53;56.05;97035.22;6184482;23;20025;-78
2022/05/05 09:22:12;;;;;;;11.88;10.68;;;;;;;18.64;56.82;97034.47;6184011;23;20029;-78
2022/05/05 09:24:44;;;;;;;10.45;9.43;;;;;;;18.77;53.59;97035.34;6187079;23;20017;-78
2022/05/05 09:27:23;;;;;;;13.27;11.90;;;;;;;18.89;55.57;97029.13;6194256;23;20021;-79
2022/05/05 09:30:12;;;;;;;15.65;13.05;;;;;;;18.99;56.62;97039.13;6194967;23;20549;-79
2022/05/05 09:32:42;;;;;;;13.98;12.50;;;;;;;18.99;54.38;97038.34;6186800;23;20025;-78
2022/05/05 09:35:11;;;;;;;17.00;12.70;;;;;;;18.97;54.31;97032.47;6186474;23;20357;-78
2022/05/05 09:37:43;;;;;;;11.30;10.20;;;;;;;18.92;54.12;97023.38;6184945;23;20028;-78
2022/05/05 09:40:17;;;;;;;12.90;10.65;;;;;;;18.92;54.05;97028.66;6186421;23;20021;-78
2022/05/05 09:42:47;;;;;;;11.03;9.80;;;;;;;18.96;55.74;97025.56;6186469;23;20097;-78
2022/05/05 09:45:22;;;;;;;12.57;10.20;;;;;;;18.94;55.12;97021.31;6186223;23;20023;-78
2022/05/05 09:47:52;;;;;;;12.00;10.90;;;;;;;18.90;55.54;97028.06;6185389;23;20100;-78
2022/05/05 09:50:22;;;;;;;11.40;10.30;;;;;;;18.87;54.61;97027.69;6192386;23;20021;-79
2022/05/05 09:58:24;;;;;;;12.02;9.75;;;;;;;18.85;54.01;97033.22;6199251;23;20017;-78
2022/05/05 10:00:58;;;;;;;9.88;8.93;;;;;;;18.88;55.24;97032.78;6186533;23;20021;-78
2022/05/05 10:06:22;;;;;;;9.35;8.43;;;;;;;18.97;52.67;97035.91;6184885;23;20025;-78
2022/05/05 10:08:57;;;;;;;9.68;8.70;;;;;;;19.05;54.17;97040.09;6186088;23;20026;-79
2022/05/05 10:11:26;;;;;;;10.80;9.80;;;;;;;19.09;52.32;97038.63;6186021;23;20021;-79
2022/05/05 10:13:56;;;;;;;12.35;10.48;;;;;;;19.10;52.69;97034.91;6185382;23;20024;-78
2022/05/05 10:16:24;;;;;;;24.67;16.95;;;;;;;19.18;54.08;97037.25;6184556;23;20483;-78
2022/05/05 10:18:51;;;;;;;11.27;9.70;;;;;;;19.25;52.27;97037.16;6185646;23;20021;-79
2022/05/05 10:21:30;;;;;;;8.90;8.02;;;;;;;19.32;52.29;97038.66;6185328;23;20111;-78
2022/05/05 10:24:06;;;;;;;9.00;7.40;;;;;;;19.42;53.12;97035.47;6185845;23;20021;-79
2022/05/05 10:26:35;;;;;;;8.23;7.45;;;;;;;19.53;51.50;97029.38;6184865;23;20021;-78
2022/05/05 10:29:03;;;;;;;9.88;7.78;;;;;;;19.65;52.68;97026.75;6185920;23;20527;-78
2022/05/05 10:31:45;;;;;;;8.55;7.72;;;;;;;19.71;50.47;97025.88;6185604;23;20052;-79
2022/05/05 10:34:18;;;;;;;7.85;7.15;;;;;;;19.77;50.43;97024.16;6185528;23;20095;-80
2022/05/05 10:37:00;;;;;;;7.63;6.93;;;;;;;19.82;50.84;97020.81;6184197;23;20021;-78
2022/05/05 10:39:50;;;;;;;7.10;6.50;;;;;;;19.86;51.93;97019.31;6185401;23;20029;-78
2022/05/05 10:42:23;;;;;;;7.72;6.93;;;;;;;19.89;51.87;97018.84;6184917;23;20625;-78
2022/05/05 10:45:09;;;;;;;10.13;6.90;;;;;;;19.93;51.74;97022.66;6185674;23;20035;-78
2022/05/05 10:48:17;;;;;;;10.75;7.38;;;;;;;20.00;51.89;97020.69;6184765;23;20308;-78
2022/05/05 10:50:57;;;;;;;9.43;7.70;;;;;;;20.12;51.40;97020.69;6185455;23;20029;-79
2022/05/05 10:53:29;;;;;;;10.10;7.07;;;;;;;20.22;52.07;97014.78;6185078;23;20382;-79
2022/05/05 10:55:57;;;;;;;8.40;7.47;;;;;;;20.28;51.20;97013.88;6185018;23;20021;-80
2022/05/05 10:59:01;;;;;;;9.05;7.47;;;;;;;20.37;49.74;97012.44;6185308;23;20103;-79
2022/05/05 11:01:31;;;;;;;12.32;8.30;;;;;;;20.45;49.47;97008.66;6185674;23;20100;-79
2022/05/05 11:04:06;;;;;;;9.32;8.43;;;;;;;20.51;49.45;97011.16;6186533;23;20027;-78
2022/05/05 11:06:36;;;;;;;9.27;7.32;;;;;;;20.58;50.83;97011.06;6185822;23;20025;-79
2022/05/05 11:09:04;;;;;;;9.82;8.80;;;;;;;20.58;49.66;97011.84;6186296;23;20055;-79
2022/05/05 11:11:41;;;;;;;9.45;8.45;;;;;;;20.57;50.85;97015.56;6187078;23;20101;-79
2022/05/05 11:23:32;;;;;;;9.93;9.02;;;;;;;20.26;50.81;97016.72;6185340;23;20024;-79
2022/05/05 11:26:01;;;;;;;10.05;9.10;;;;;;;20.22;51.46;97014.78;6184291;23;20019;-79
2022/05/05 11:28:30;;;;;;;11.05;10.05;;;;;;;20.13;49.75;97023.09;6185319;23;20021;-79
2022/05/05 11:30:59;;;;;;;10.77;9.68;;;;;;;20.05;50.34;97019.97;6185109;23;20017;-79
2022/05/05 11:33:26;;;;;;;10.73;9.63;;;;;;;19.95;51.70;97016.09;6185264;23;20067;-79
2022/05/05 11:35:56;;;;;;;12.18;10.38;;;;;;;19.89;52.27;97016.19;6183638;23;20016;-79
2022/05/05 11:38:24;;;;;;;11.75;10.57;;;;;;;19.85;52.71;97018.50;6185087;23;20040;-79
2022/05/05 11:41:01;;;;;;;12.63;11.32;;;;;;;19.78;52.43;97009.06;6184723;23;20072;-79
2022/05/05 11:46:17;;;;;;;21.67;11.98;;;;;;;19.69;53.35;97014.69;6184045;23;20358;-78
2022/05/05 11:48:52;;;;;;;13.32;11.50;;;;;;;19.65;52.98;97013.50;6184685;23;20099;-79
2022/05/05 11:51:24;;;;;;;13.13;10.68;;;;;;;19.61;53.18;97004.41;6185307;23;20032;-79
2022/05/05 11:54:00;;;;;;;21.52;12.45;;;;;;;19.56;52.97;97010.41;6184534;23;20099;-79
2022/05/05 11:56:28;;;;;;;14.07;11.77;;;;;;;19.52;52.90;96996.00;6184233;23;20056;-79
2022/05/05 12:01:42;;;;;;;15.02;11.20;;;;;;;19.48;54.01;96988.75;6184840;23;20021;-79
2022/05/05 12:04:12;;;;;;;17.83;14.02;;;;;;;19.45;52.98;96997.16;6184871;23;20076;-78
2022/05/05 12:06:41;;;;;;;20.15;15.93;;;;;;;19.44;53.85;96993.72;6183875;23;20025;-79
2022/05/05 12:09:09;;;;;;;18.55;15.90;;;;;;;19.45;53.61;96991.88;6184276;23;20465;-78
2022/05/05 12:11:38;;;;;;;16.48;14.40;;;;;;;19.43;53.45;96986.81;6189758;23;20025;-80
2022/05/05 12:14:09;;;;;;;15.65;13.75;;;;;;;19.45;54.13;96989.22;6195791;23;20027;-79
2022/05/05 12:16:38;;;;;;;15.95;13.68;;;;;;;19.46;53.59;96983.72;6193309;23;20021;-79
2022/05/05 12:19:14;;;;;;;15.77;14.13;;;;;;;19.46;53.63;96982.88;6194307;23;20025;-79
2022/05/05 12:22:03;;;;;;;15.80;14.02;;;;;;;19.47;53.32;96982.66;6187004;23;20122;-79
2022/05/05 12:24:31;;;;;;;14.77;13.32;;;;;;;19.51;54.67;96983.03;6184900;23;20507;-79
2022/05/05 12:27:07;;;;;;;15.80;13.05;;;;;;;19.55;54.86;96984.19;6183871;23;20021;-79
2022/05/05 12:29:40;;;;;;;16.40;14.70;;;;;;;19.63;54.77;96980.38;6184860;23;20096;-79
2022/05/05 12:32:11;;;;;;;16.50;14.02;;;;;;;19.69;54.14;96975.00;6184222;23;20553;-78
2022/05/05 12:34:40;;;;;;;16.33;14.63;;;;;;;19.74;53.65;96977.78;6184496;23;20017;-78
2022/05/05 12:37:18;;;;;;;12.75;11.38;;;;;;;19.79;53.88;96973.59;6184938;23;20021;-79
2022/05/05 12:39:53;;;;;;;14.05;11.90;;;;;;;19.82;53.35;96978.47;6185979;23;20077;-79
2022/05/05 12:42:22;;;;;;;14.82;11.65;;;;;;;19.82;52.83;96978.47;6185709;23;20422;-79
2022/05/05 12:44:51;;;;;;;13.65;11.30;;;;;;;19.81;53.60;96977.66;6184805;23;20017;-79
2022/05/05 12:47:23;;;;;;;18.13;13.27;;;;;;;19.75;53.08;96971.44;6183709;23;20025;-78
2022/05/05 12:49:52;;;;;;;;;;;;;;;19.77;54.09;96976.50;6185064;23;20100;-79
2022/05/05 13:29:59;;;;;;;9.80;8.80;;;;;;;19.86;51.30;96931.97;6172802;23;20012;-83
2022/05/05 13:41:05;;;;;;;8.13;7.32;;;;;;;19.50;50.72;96928.50;6154433;22;20009;-82
2022/05/05 13:46:25;;;;;;;8.23;7.40;;;;;;;19.32;50.99;96922.28;6188975;23;20001;-82
2022/05/05 13:51:56;;;;;;;10.30;9.15;;;;;;;19.17;50.95;96918.47;6214807;22;20011;-79
2022/05/05 13:54:56;;;;;;;9.70;8.80;;;;;;;19.11;51.24;96931.59;6243070;23;20016;-79
2022/05/05 13:57:34;;;;;;;11.88;8.40;;;;;;;19.07;51.19;96924.34;6242481;23;20023;-79
2022/05/05 14:07:12;;;;;;;10.90;9.38;;;;;;;19.04;51.23;96912.34;6215202;23;20039;-79
2022/05/05 14:32:46;;;;;;;12.10;10.90;;;;;;;19.04;51.60;96906.28;6171447;23;20017;-81
2022/05/05 14:54:41;;;;;;;11.63;9.87;;;;;;;18.98;51.31;96917.75;6209533;23;19997;-79
2022/05/05 15:15:55;;;;;;;19.38;12.63;;;;;;;18.58;57.04;96934.16;6154682;23;20037;-82
2022/05/05 15:18:51;;;;;;;17.38;13.70;;;;;;;18.48;58.48;96938.16;6184579;23;20028;-79
2022/05/05 15:27:11;;;;;;;20.00;15.07;;;;;;;18.29;62.14;96941.84;6153842;23;20061;-82
2022/05/05 15:43:42;;;;;;;16.58;14.88;;;;;;;17.79;62.55;96944.63;5983891;22;6504128;-79
2022/05/05 16:18:14;;;;;;;16.20;13.25;;;;;;;17.52;69.04;96971.25;6282032;23;20027;-79